Time;durP1;ratioP1;P1;durP2;ratioP2;P2;SDS_P1;SDS_P2;PMS_P1;PMS_P2;Temp;Humidity;BMP_temperature;BMP_pressure;BME280_temperature;BME280_humidity;BME280_pressure;Samples;Min_cycle;Max_cycle;Signal;HPM_P1;HPM_P2
2023/07/07 00:02:09;;;;;;;;;8.00;7.00;;;;;;;;5064029;28;45292;-80
2023/07/07 00:04:34;;;;;;;;;6.67;6.67;;;;;;;;5082286;28;45492;-80
2023/07/07 00:07:00;;;;;;;;;5.67;5.67;;;;;;;;5081787;28;45571;-79
2023/07/07 00:09:25;;;;;;;;;7.67;5.00;;;;;;;;5081734;28;45432;-80
2023/07/07 00:11:51;;;;;;;;;8.00;7.00;;;;;;;;5081080;28;45343;-79
2023/07/07 00:14:16;;;;;;;;;5.00;5.00;;;;;;;;5081670;28;45424;-80
2023/07/07 00:16:42;;;;;;;;;7.00;6.67;;;;;;;;5081986;28;46337;-78
2023/07/07 00:19:09;;;;;;;;;7.67;7.67;;;;;;;;5082001;28;45374;-79
2023/07/07 00:21:35;;;;;;;;;6.33;6.00;;;;;;;;5063472;28;45417;-80
2023/07/07 00:24:00;;;;;;;;;7.33;7.33;;;;;;;;5081894;28;45288;-79
2023/07/07 00:26:25;;;;;;;;;9.33;6.67;;;;;;;;5081584;28;46303;-80
2023/07/07 00:28:51;;;;;;;;;6.33;6.33;;;;;;;;5086574;27;45365;-79
2023/07/07 00:31:17;;;;;;;;;8.00;7.33;;;;;;;;5083914;27;45421;-79
2023/07/07 00:33:42;;;;;;;;;7.00;7.00;;;;;;;;5102206;27;45367;-80
2023/07/07 00:36:07;;;;;;;;;7.00;7.00;;;;;;;;5101713;27;45473;-79
2023/07/07 00:38:33;;;;;;;;;6.67;6.33;;;;;;;;5102219;27;45343;-80
2023/07/07 00:40:59;;;;;;;;;7.00;7.00;;;;;;;;5102309;27;45206;-80
2023/07/07 00:43:25;;;;;;;;;8.00;7.00;;;;;;;;5095719;27;45457;-80
2023/07/07 00:45:50;;;;;;;;;8.67;7.00;;;;;;;;5081046;28;45585;-80
2023/07/07 00:48:20;;;;;;;;;6.33;6.33;;;;;;;;5063177;28;45973;-80
2023/07/07 00:50:49;;;;;;;;;8.00;7.00;;;;;;;;5081215;28;45321;-80
2023/07/07 00:53:14;;;;;;;;;7.67;6.67;;;;;;;;5062769;28;46177;-80
2023/07/07 00:55:41;;;;;;;;;8.00;6.00;;;;;;;;5081119;28;45318;-80
2023/07/07 00:58:09;;;;;;;;;8.00;8.00;;;;;;;;5062987;28;45245;-80
2023/07/07 01:00:36;;;;;;;;;9.33;9.00;;;;;;;;5081550;28;45395;-80
2023/07/07 01:03:05;;;;;;;;;8.00;7.67;;;;;;;;5062926;28;46437;-80
2023/07/07 01:05:31;;;;;;;;;8.67;8.00;;;;;;;;5081050;28;46322;-79
2023/07/07 01:07:58;;;;;;;;;8.00;8.00;;;;;;;;5080940;28;45425;-80
2023/07/07 01:10:23;;;;;;;;;9.00;8.00;;;;;;;;5081318;28;45310;-80
2023/07/07 01:12:50;;;;;;;;;7.00;5.67;;;;;;;;5081103;28;45237;-80
2023/07/07 01:15:15;;;;;;;;;8.67;7.33;;;;;;;;5062607;28;47189;-80
2023/07/07 01:17:47;;;;;;;;;7.00;7.00;;;;;;;;5081042;28;45257;-80
2023/07/07 01:20:13;;;;;;;;;8.00;7.00;;;;;;;;5081099;28;45373;-81
2023/07/07 01:22:38;;;;;;;;;9.33;8.00;;;;;;;;5061541;28;45765;-80
2023/07/07 01:25:22;;;;;;;;;6.50;6.00;;;;;;;;5080948;28;45277;-80
2023/07/07 01:27:47;;;;;;;;;5.00;5.00;;;;;;;;5062651;28;46081;-80
2023/07/07 01:30:19;;;;;;;;;6.00;6.00;;;;;;;;5078831;27;45594;-80
2023/07/07 01:32:44;;;;;;;;;7.00;7.00;;;;;;;;5101189;27;45420;-80
2023/07/07 01:35:11;;;;;;;;;9.00;6.33;;;;;;;;5101068;27;45337;-80
2023/07/07 01:37:36;;;;;;;;;7.33;7.00;;;;;;;;5082511;27;46154;-80
2023/07/07 01:40:03;;;;;;;;;4.33;4.33;;;;;;;;5101329;27;45325;-80
2023/07/07 01:42:43;;;;;;;;;6.67;6.67;;;;;;;;5101025;27;46040;-80
2023/07/07 01:45:16;;;;;;;;;8.00;7.00;;;;;;;;5100916;27;46272;-80
2023/07/07 01:47:44;;;;;;;;;7.67;5.67;;;;;;;;5082508;27;45207;-80
2023/07/07 01:50:12;;;;;;;;;7.67;6.67;;;;;;;;5100970;27;45322;-80
2023/07/07 01:52:50;;;;;;;;;4.33;4.33;;;;;;;;5100661;27;45527;-80
2023/07/07 01:55:18;;;;;;;;;7.67;7.67;;;;;;;;5100787;27;46245;-79
2023/07/07 01:57:45;;;;;;;;;6.33;6.33;;;;;;;;5082496;27;45377;-80
2023/07/07 02:00:12;;;;;;;;;7.00;7.00;;;;;;;;5082565;27;45350;-79
2023/07/07 02:02:37;;;;;;;;;7.00;5.67;;;;;;;;5082328;27;46355;-80
2023/07/07 02:05:02;;;;;;;;;7.33;7.33;;;;;;;;5100681;27;46408;-80
2023/07/07 02:07:27;;;;;;;;;7.33;7.33;;;;;;;;5100458;27;45321;-80
2023/07/07 02:09:53;;;;;;;;;8.33;8.33;;;;;;;;5100940;27;45261;-80
2023/07/07 02:12:18;;;;;;;;;8.00;8.00;;;;;;;;5100599;27;45514;-80
2023/07/07 02:14:43;;;;;;;;;6.00;6.00;;;;;;;;5100549;27;45603;-80
2023/07/07 02:17:08;;;;;;;;;11.00;7.67;;;;;;;;5082293;27;45355;-80
2023/07/07 02:19:33;;;;;;;;;9.00;9.00;;;;;;;;5082403;27;45543;-80
2023/07/07 02:21:58;;;;;;;;;11.00;9.00;;;;;;;;5100378;27;45213;-80
2023/07/07 02:24:24;;;;;;;;;8.67;8.67;;;;;;;;5100381;27;45401;-80
2023/07/07 02:26:50;;;;;;;;;9.00;9.00;;;;;;;;5081942;27;45714;-80
2023/07/07 02:29:15;;;;;;;;;10.00;10.00;;;;;;;;5092240;27;45419;-80
2023/07/07 02:31:40;;;;;;;;;11.00;11.00;;;;;;;;5061370;28;46095;-80
2023/07/07 02:34:05;;;;;;;;;12.67;12.00;;;;;;;;5079717;28;45154;-80
2023/07/07 02:36:31;;;;;;;;;10.67;10.67;;;;;;;;5079568;28;45324;-80
2023/07/07 02:38:56;;;;;;;;;13.00;13.00;;;;;;;;5061521;28;45169;-80
2023/07/07 02:41:21;;;;;;;;;11.33;10.33;;;;;;;;5079666;28;45205;-79
2023/07/07 02:43:47;;;;;;;;;14.33;13.33;;;;;;;;5079499;28;46542;-80
2023/07/07 02:46:12;;;;;;;;;10.33;10.00;;;;;;;;5079482;28;45236;-80
2023/07/07 02:48:37;;;;;;;;;11.67;11.67;;;;;;;;5079942;28;45212;-80
2023/07/07 02:51:04;;;;;;;;;11.33;10.00;;;;;;;;5079195;28;45252;-80
2023/07/07 02:53:30;;;;;;;;;14.00;14.00;;;;;;;;5079673;28;45393;-80
2023/07/07 02:55:55;;;;;;;;;14.67;13.33;;;;;;;;5061309;28;45229;-80
2023/07/07 02:58:21;;;;;;;;;13.00;13.00;;;;;;;;5079666;28;45363;-80
2023/07/07 03:00:47;;;;;;;;;13.33;13.00;;;;;;;;5079410;28;45493;-80
2023/07/07 03:03:12;;;;;;;;;10.00;10.00;;;;;;;;5079437;28;45540;-80
2023/07/07 03:05:38;;;;;;;;;11.33;11.33;;;;;;;;5079236;28;45292;-80
2023/07/07 03:08:03;;;;;;;;;14.33;13.33;;;;;;;;5079617;28;45319;-80
2023/07/07 03:10:32;;;;;;;;;11.00;9.67;;;;;;;;5079152;28;45471;-79
2023/07/07 03:12:57;;;;;;;;;11.00;11.00;;;;;;;;5061162;28;47109;-80
2023/07/07 03:15:22;;;;;;;;;12.00;10.33;;;;;;;;5079327;28;45336;-80
2023/07/07 03:17:47;;;;;;;;;10.67;10.67;;;;;;;;5061248;28;45470;-80
2023/07/07 03:20:13;;;;;;;;;11.67;11.67;;;;;;;;5079099;28;45241;-80
2023/07/07 03:22:38;;;;;;;;;9.67;9.67;;;;;;;;5060838;28;47683;-80
2023/07/07 03:25:03;;;;;;;;;8.00;8.00;;;;;;;;5061034;28;45227;-80
2023/07/07 03:27:29;;;;;;;;;9.33;9.33;;;;;;;;5079390;28;45374;-80
2023/07/07 03:29:54;;;;;;;;;11.00;10.67;;;;;;;;5092739;27;45382;-80
2023/07/07 03:32:19;;;;;;;;;9.00;9.00;;;;;;;;5099436;27;45474;-79
2023/07/07 03:34:47;;;;;;;;;9.00;9.00;;;;;;;;5099580;27;45339;-80
2023/07/07 03:37:12;;;;;;;;;9.33;9.33;;;;;;;;5099351;27;45341;-80
2023/07/07 03:39:37;;;;;;;;;8.00;8.00;;;;;;;;5099472;27;45322;-80
2023/07/07 03:42:03;;;;;;;;;9.67;9.33;;;;;;;;5099320;27;45426;-80
2023/07/07 03:44:28;;;;;;;;;12.00;11.00;;;;;;;;5080856;27;45601;-80
2023/07/07 03:46:53;;;;;;;;;8.67;8.67;;;;;;;;5102975;27;45270;-80
2023/07/07 03:49:18;;;;;;;;;9.33;9.00;;;;;;;;5084646;27;46158;-80
2023/07/07 03:51:44;;;;;;;;;9.67;9.67;;;;;;;;5102377;27;46311;-80
2023/07/07 03:54:09;;;;;;;;;9.33;9.33;;;;;;;;5084457;27;45224;-80
2023/07/07 03:56:34;;;;;;;;;11.00;10.00;;;;;;;;5084426;27;45271;-80
2023/07/07 03:58:59;;;;;;;;;8.00;7.33;;;;;;;;5102793;27;45370;-80
2023/07/07 04:01:24;;;;;;;;;10.00;8.67;;;;;;;;5084373;27;47257;-80
2023/07/07 04:03:50;;;;;;;;;8.00;8.00;;;;;;;;5084156;27;46166;-80
2023/07/07 04:06:15;;;;;;;;;10.67;10.00;;;;;;;;5102501;27;45518;-80
2023/07/07 04:08:40;;;;;;;;;6.00;6.00;;;;;;;;5102690;27;45441;-80
2023/07/07 04:11:10;;;;;;;;;7.33;7.00;;;;;;;;5084038;27;47208;-79
2023/07/07 04:13:36;;;;;;;;;9.33;9.33;;;;;;;;5102636;27;45550;-80
2023/07/07 04:16:04;;;;;;;;;11.00;10.00;;;;;;;;5096121;27;45384;-80
2023/07/07 04:18:33;;;;;;;;;13.67;13.67;;;;;;;;5063576;28;45517;-80
2023/07/07 04:20:59;;;;;;;;;11.67;11.67;;;;;;;;5080871;28;45444;-80
2023/07/07 04:23:24;;;;;;;;;15.00;12.00;;;;;;;;5063616;28;45612;-80
2023/07/07 04:25:50;;;;;;;;;8.00;8.00;;;;;;;;5063666;28;45370;-80
2023/07/07 04:28:15;;;;;;;;;11.33;11.33;;;;;;;;5081740;28;45369;-79
2023/07/07 04:30:40;;;;;;;;;10.00;10.00;;;;;;;;5101755;27;46196;-80
2023/07/07 04:33:05;;;;;;;;;11.00;9.67;;;;;;;;5102271;27;45304;-80
2023/07/07 04:35:34;;;;;;;;;15.00;12.00;;;;;;;;5083485;27;45424;-80
2023/07/07 04:37:59;;;;;;;;;29.33;27.33;;;;;;;;5102106;27;45247;-80
2023/07/07 04:40:24;;;;;;;;;16.33;16.33;;;;;;;;5101999;27;45577;-80
2023/07/07 04:42:49;;;;;;;;;20.67;18.33;;;;;;;;5101887;27;45165;-79
2023/07/07 04:45:15;;;;;;;;;17.00;16.33;;;;;;;;5101967;27;45616;-80
2023/07/07 04:47:40;;;;;;;;;11.67;10.33;;;;;;;;5083461;27;46107;-80
2023/07/07 04:50:05;;;;;;;;;8.00;8.00;;;;;;;;5083469;27;46096;-79
2023/07/07 04:52:30;;;;;;;;;10.33;9.33;;;;;;;;5101523;27;45194;-79
2023/07/07 04:54:55;;;;;;;;;7.67;7.67;;;;;;;;5102104;27;45348;-80
2023/07/07 04:57:21;;;;;;;;;8.33;8.33;;;;;;;;5100680;27;45485;-79
2023/07/07 04:59:46;;;;;;;;;7.33;7.00;;;;;;;;5101784;27;45140;-80
2023/07/07 05:02:11;;;;;;;;;9.33;9.33;;;;;;;;5101615;27;45258;-80
2023/07/07 05:04:36;;;;;;;;;14.67;13.67;;;;;;;;5101899;27;45286;-80
2023/07/07 05:07:02;;;;;;;;;11.00;10.00;;;;;;;;5083029;27;45794;-80
2023/07/07 05:09:27;;;;;;;;;10.00;10.00;;;;;;;;5083441;27;48045;-80
2023/07/07 05:11:52;;;;;;;;;14.00;12.00;;;;;;;;5101622;27;45380;-80
2023/07/07 05:14:17;;;;;;;;;10.67;10.67;;;;;;;;5101956;27;45454;-80
2023/07/07 05:16:43;;;;;;;;;11.67;11.67;;;;;;;;5102451;27;45346;-80
2023/07/07 05:19:08;;;;;;;;;9.33;9.00;;;;;;;;5101562;27;45405;-80
2023/07/07 05:21:33;;;;;;;;;12.33;12.33;;;;;;;;5101429;27;45284;-80
2023/07/07 05:23:59;;;;;;;;;13.00;13.00;;;;;;;;5083163;27;45276;-80
2023/07/07 05:26:28;;;;;;;;;12.33;12.00;;;;;;;;5101428;27;45359;-80
2023/07/07 05:28:53;;;;;;;;;15.00;13.00;;;;;;;;5093007;27;45357;-80
2023/07/07 05:31:20;;;;;;;;;15.33;14.00;;;;;;;;5061899;28;45434;-80
2023/07/07 05:33:45;;;;;;;;;13.33;12.67;;;;;;;;5080799;28;45271;-80
2023/07/07 05:36:10;;;;;;;;;11.00;11.00;;;;;;;;5080439;28;45245;-80
2023/07/07 05:38:38;;;;;;;;;12.67;11.67;;;;;;;;5080720;28;45261;-80
2023/07/07 05:41:03;;;;;;;;;11.67;10.33;;;;;;;;5080756;28;45512;-80
2023/07/07 05:43:28;;;;;;;;;12.00;12.00;;;;;;;;5081111;28;45195;-79
2023/07/07 05:45:57;;;;;;;;;11.33;11.00;;;;;;;;5080401;28;45302;-79
2023/07/07 05:48:22;;;;;;;;;12.67;12.00;;;;;;;;5080795;28;46448;-78
2023/07/07 05:50:47;;;;;;;;;11.67;11.33;;;;;;;;5080062;28;45332;-79
2023/07/07 05:53:13;;;;;;;;;18.67;14.67;;;;;;;;5062297;28;45245;-81
2023/07/07 05:55:38;;;;;;;;;14.33;13.33;;;;;;;;5062322;28;46094;-79
2023/07/07 05:58:04;;;;;;;;;14.00;14.00;;;;;;;;5080629;28;45254;-79
2023/07/07 06:00:31;;;;;;;;;16.67;15.67;;;;;;;;5082577;28;45615;-79
2023/07/07 06:02:57;;;;;;;;;19.33;19.00;;;;;;;;5062148;28;45315;-78
2023/07/07 06:05:23;;;;;;;;;17.33;17.00;;;;;;;;5079695;28;45570;-79
2023/07/07 06:07:49;;;;;;;;;16.67;16.33;;;;;;;;5061327;28;46945;-80
2023/07/07 06:10:14;;;;;;;;;23.00;20.33;;;;;;;;5062005;28;46392;-79
2023/07/07 06:12:39;;;;;;;;;26.00;25.00;;;;;;;;5061857;28;45320;-81
2023/07/07 06:15:05;;;;;;;;;23.00;22.00;;;;;;;;5061742;28;45925;-80
2023/07/07 06:17:31;;;;;;;;;29.67;28.00;;;;;;;;5080016;28;46542;-76
2023/07/07 06:19:56;;;;;;;;;54.00;44.25;;;;;;;;5061776;28;45472;-78
2023/07/07 06:22:21;;;;;;;;;40.67;34.33;;;;;;;;5079981;28;45405;-76
2023/07/07 06:24:46;;;;;;;;;45.67;37.33;;;;;;;;5079903;28;45465;-76
2023/07/07 06:27:12;;;;;;;;;71.75;64.25;;;;;;;;5079924;28;45283;-76
2023/07/07 06:29:37;;;;;;;;;74.00;66.75;;;;;;;;5079769;28;45375;-76
2023/07/07 06:32:02;;;;;;;;;42.67;34.33;;;;;;;;5079939;28;45294;-77
2023/07/07 06:34:27;;;;;;;;;47.00;36.67;;;;;;;;5079738;28;45568;-76
2023/07/07 06:36:52;;;;;;;;;70.00;61.50;;;;;;;;5079480;28;46707;-77
2023/07/07 06:39:18;;;;;;;;;51.00;40.00;;;;;;;;5079708;28;45366;-76
2023/07/07 06:41:43;;;;;;;;;46.67;37.33;;;;;;;;5061328;28;45224;-77
2023/07/07 06:44:08;;;;;;;;;31.33;29.00;;;;;;;;5079390;28;45320;-76
2023/07/07 06:46:33;;;;;;;;;29.67;28.00;;;;;;;;5079412;28;46234;-77
2023/07/07 06:49:01;;;;;;;;;13.00;12.33;;;;;;;;5079746;28;45467;-76
2023/07/07 06:51:27;;;;;;;;;15.33;14.67;;;;;;;;5079247;28;45373;-76
2023/07/07 06:53:52;;;;;;;;;27.33;26.00;;;;;;;;5079569;28;45537;-76
2023/07/07 06:56:17;;;;;;;;;23.00;21.33;;;;;;;;5078900;28;45129;-75
2023/07/07 06:58:43;;;;;;;;;16.33;14.33;;;;;;;;5079518;28;45417;-76
2023/07/07 07:01:10;;;;;;;;;26.33;24.67;;;;;;;;5078181;28;45503;-76
2023/07/07 07:03:36;;;;;;;;;17.67;15.67;;;;;;;;5079536;28;45385;-76
2023/07/07 07:06:01;;;;;;;;;9.00;8.00;;;;;;;;5079101;28;45929;-76
2023/07/07 07:08:26;;;;;;;;;8.33;8.00;;;;;;;;5079423;28;45385;-76
2023/07/07 07:10:51;;;;;;;;;9.00;9.00;;;;;;;;5079468;28;45583;-75
2023/07/07 07:13:16;;;;;;;;;9.00;9.00;;;;;;;;5061119;28;46024;-75
2023/07/07 07:15:42;;;;;;;;;11.67;11.67;;;;;;;;5079234;28;45355;-76
2023/07/07 07:18:07;;;;;;;;;9.67;9.67;;;;;;;;5060956;28;45389;-75
2023/07/07 07:20:33;;;;;;;;;8.00;8.00;;;;;;;;5080620;28;45300;-76
2023/07/07 07:22:58;;;;;;;;;8.67;8.67;;;;;;;;5082898;28;45293;-75
2023/07/07 07:25:23;;;;;;;;;9.00;9.00;;;;;;;;5082805;28;45394;-75
2023/07/07 07:27:48;;;;;;;;;8.00;8.00;;;;;;;;5062743;28;45989;-75
2023/07/07 07:30:15;;;;;;;;;9.67;9.67;;;;;;;;5064194;28;45310;-73
2023/07/07 07:32:40;;;;;;;;;9.00;8.67;;;;;;;;5082696;28;45280;-74
2023/07/07 07:35:05;;;;;;;;;7.67;7.67;;;;;;;;5064420;28;46059;-75
2023/07/07 07:37:31;;;;;;;;;8.33;8.33;;;;;;;;5082361;28;45259;-74
2023/07/07 07:39:56;;;;;;;;;11.33;10.00;;;;;;;;5064369;28;45179;-75
2023/07/07 07:42:21;;;;;;;;;9.33;9.33;;;;;;;;5082439;28;45292;-75
2023/07/07 07:44:46;;;;;;;;;9.33;9.33;;;;;;;;5082385;28;45364;-77
2023/07/07 07:47:11;;;;;;;;;7.33;7.33;;;;;;;;5082532;28;45217;-76
2023/07/07 07:49:37;;;;;;;;;10.00;10.00;;;;;;;;5078680;28;45328;-77
2023/07/07 07:52:02;;;;;;;;;10.00;10.00;;;;;;;;5061972;28;45516;-77
2023/07/07 07:54:27;;;;;;;;;9.00;9.00;;;;;;;;5061920;28;47398;-76
2023/07/07 07:56:53;;;;;;;;;9.33;9.33;;;;;;;;5063132;28;45196;-75
2023/07/07 07:59:18;;;;;;;;;10.67;9.00;;;;;;;;5081710;28;45304;-77
2023/07/07 08:01:44;;;;;;;;;10.67;9.33;;;;;;;;5081881;28;45346;-75
2023/07/07 08:04:09;;;;;;;;;12.67;8.67;;;;;;;;5062998;28;48236;-75
2023/07/07 08:06:35;;;;;;;;;10.67;10.67;;;;;;;;5081078;28;45227;-76
2023/07/07 08:09:00;;;;;;;;;11.00;10.67;;;;;;;;5081524;28;45432;-75
2023/07/07 08:11:48;;;;;;;;;9.00;8.33;;;;;;;;5061905;28;46422;-75
2023/07/07 08:14:15;;;;;;;;;10.33;10.33;;;;;;;;5068995;28;45460;-75
2023/07/07 08:16:40;;;;;;;;;8.33;8.00;;;;;;;;5062793;28;46035;-75
2023/07/07 08:19:06;;;;;;;;;12.33;10.33;;;;;;;;5081289;28;45282;-76
2023/07/07 08:21:31;;;;;;;;;12.67;12.67;;;;;;;;5080816;27;45429;-76
2023/07/07 08:23:56;;;;;;;;;10.33;10.33;;;;;;;;5081664;27;45289;-77
2023/07/07 08:26:21;;;;;;;;;12.67;11.00;;;;;;;;5083487;27;45302;-77
2023/07/07 08:28:47;;;;;;;;;12.00;10.33;;;;;;;;5080872;27;45620;-76
2023/07/07 08:31:12;;;;;;;;;11.00;10.00;;;;;;;;5081313;27;45239;-77
2023/07/07 08:33:37;;;;;;;;;11.33;11.00;;;;;;;;5060847;27;47985;-77
2023/07/07 08:36:03;;;;;;;;;11.33;11.00;;;;;;;;5084022;27;45378;-78
2023/07/07 08:38:28;;;;;;;;;11.67;10.00;;;;;;;;5083369;27;45243;-76
2023/07/07 08:40:54;;;;;;;;;11.00;11.00;;;;;;;;5064790;28;46025;-77
2023/07/07 08:43:21;;;;;;;;;8.67;8.67;;;;;;;;5079984;27;46803;-76
2023/07/07 08:46:06;;;;;;;;;11.67;10.00;;;;;;;;5082682;27;45851;-77
2023/07/07 08:48:43;;;;;;;;;10.00;9.33;;;;;;;;5063780;27;45488;-77
2023/07/07 08:51:14;;;;;;;;;12.00;11.33;;;;;;;;5060735;28;47413;-76
2023/07/07 08:53:43;;;;;;;;;9.67;9.67;;;;;;;;5068831;27;48417;-77
2023/07/07 08:56:17;;;;;;;;;9.67;9.67;;;;;;;;5061196;28;46440;-77
2023/07/07 08:58:51;;;;;;;;;9.67;9.33;;;;;;;;5082491;27;45248;-77
2023/07/07 09:01:28;;;;;;;;;11.00;10.67;;;;;;;;5060129;28;46564;-76
2023/07/07 09:03:53;;;;;;;;;11.67;11.67;;;;;;;;5080932;27;45607;-76
2023/07/07 09:06:28;;;;;;;;;10.67;10.00;;;;;;;;5061238;28;45515;-76
2023/07/07 09:08:53;;;;;;;;;12.00;12.00;;;;;;;;5051444;28;47406;-77
2023/07/07 09:11:18;;;;;;;;;9.50;9.50;;;;;;;;5060582;28;47154;-76
2023/07/07 09:13:45;;;;;;;;;11.00;11.00;;;;;;;;5088933;27;45535;-75
2023/07/07 09:16:17;;;;;;;;;11.00;10.67;;;;;;;;5064901;27;45637;-76
2023/07/07 09:19:03;;;;;;;;;12.00;10.33;;;;;;;;5073196;28;45374;-76
2023/07/07 09:21:40;;;;;;;;;11.00;11.00;;;;;;;;5070458;28;46827;-77
2023/07/07 09:24:14;;;;;;;;;10.67;10.67;;;;;;;;5062659;27;46118;-78
2023/07/07 09:26:39;;;;;;;;;12.33;12.00;;;;;;;;5088177;27;45279;-77
2023/07/07 09:29:12;;;;;;;;;11.33;11.33;;;;;;;;5084493;27;45283;-77
2023/07/07 09:31:39;;;;;;;;;10.67;10.33;;;;;;;;5077657;27;45402;-77
2023/07/07 09:34:06;;;;;;;;;11.33;11.33;;;;;;;;5075781;27;45804;-78
2023/07/07 09:36:37;;;;;;;;;12.67;12.67;;;;;;;;5075471;27;45259;-78
2023/07/07 09:39:03;;;;;;;;;10.67;10.67;;;;;;;;5075113;27;45481;-79
2023/07/07 09:41:50;;;;;;;;;10.33;10.33;;;;;;;;5065752;28;45562;-79
2023/07/07 09:44:22;;;;;;;;;10.33;10.33;;;;;;;;5074153;27;45452;-78
2023/07/07 09:46:50;;;;;;;;;10.67;10.33;;;;;;;;5070813;27;45826;-77
2023/07/07 09:49:18;;;;;;;;;12.00;12.00;;;;;;;;5072962;27;45434;-75
2023/07/07 09:51:51;;;;;;;;;11.33;11.33;;;;;;;;5083221;27;45406;-76
2023/07/07 09:54:18;;;;;;;;;13.00;13.00;;;;;;;;5065352;27;45369;-77
2023/07/07 09:56:52;;;;;;;;;11.67;11.67;;;;;;;;5076985;27;45160;-77
2023/07/07 09:59:20;;;;;;;;;12.33;12.00;;;;;;;;5080773;27;45383;-76
2023/07/07 10:01:46;;;;;;;;;11.33;11.33;;;;;;;;5075905;27;46489;-76
2023/07/07 10:04:13;;;;;;;;;12.67;11.33;;;;;;;;5078137;27;45523;-77
2023/07/07 10:06:47;;;;;;;;;12.00;12.00;;;;;;;;5077613;28;45389;-77
2023/07/07 10:09:13;;;;;;;;;13.33;11.67;;;;;;;;5078552;28;45389;-77
2023/07/07 10:11:40;;;;;;;;;11.00;11.00;;;;;;;;5079196;28;45369;-77
2023/07/07 10:14:06;;;;;;;;;10.33;10.33;;;;;;;;5061152;28;47539;-78
2023/07/07 10:16:32;;;;;;;;;10.67;9.00;;;;;;;;5074025;28;45687;-78
2023/07/07 10:18:59;;;;;;;;;11.00;11.00;;;;;;;;5076983;28;45319;-77
2023/07/07 10:21:25;;;;;;;;;11.67;11.67;;;;;;;;5059613;28;46116;-78
2023/07/07 10:23:51;;;;;;;;;11.33;10.33;;;;;;;;5078382;28;46010;-78
2023/07/07 10:26:16;;;;;;;;;10.67;10.67;;;;;;;;5079787;28;45452;-78
2023/07/07 10:28:41;;;;;;;;;12.00;10.67;;;;;;;;5082260;27;45534;-78
2023/07/07 10:31:08;;;;;;;;;11.00;11.00;;;;;;;;5079059;27;46140;-78
2023/07/07 10:33:33;;;;;;;;;13.00;12.00;;;;;;;;5100378;27;45376;-76
2023/07/07 10:36:15;;;;;;;;;11.00;11.00;;;;;;;;5100268;27;45337;-77
2023/07/07 10:38:40;;;;;;;;;13.33;13.33;;;;;;;;5100830;27;45419;-78
2023/07/07 10:41:07;;;;;;;;;9.33;9.00;;;;;;;;5077267;27;45328;-76
2023/07/07 10:43:33;;;;;;;;;10.67;10.67;;;;;;;;5080093;28;45365;-78
2023/07/07 10:45:58;;;;;;;;;10.00;9.00;;;;;;;;5080835;28;45343;-77
2023/07/07 10:48:23;;;;;;;;;10.00;10.00;;;;;;;;5081307;28;45483;-77
2023/07/07 10:50:51;;;;;;;;;12.00;12.00;;;;;;;;5062678;28;47215;-78
2023/07/07 10:53:23;;;;;;;;;9.67;9.67;;;;;;;;5075502;27;45517;-78
2023/07/07 10:56:07;;;;;;;;;11.33;11.33;;;;;;;;5081038;28;45427;-79
2023/07/07 10:58:55;;;;;;;;;11.67;11.67;;;;;;;;5088530;27;45438;-77
2023/07/07 11:01:31;;;;;;;;;9.33;9.33;;;;;;;;5082888;28;45513;-78
2023/07/07 11:04:15;;;;;;;;;11.33;11.33;;;;;;;;5082819;28;45402;-79
2023/07/07 11:06:59;;;;;;;;;9.33;9.00;;;;;;;;5078356;28;45462;-78
2023/07/07 11:09:25;;;;;;;;;11.67;11.00;;;;;;;;5074943;28;45204;-80
2023/07/07 11:12:01;;;;;;;;;8.00;8.00;;;;;;;;5082350;28;45258;-77
2023/07/07 11:14:39;;;;;;;;;10.00;10.00;;;;;;;;5064468;28;47255;-79
2023/07/07 11:17:11;;;;;;;;;10.00;10.00;;;;;;;;5063806;28;45377;-80
2023/07/07 11:19:55;;;;;;;;;11.67;10.33;;;;;;;;5064132;28;45409;-78
2023/07/07 11:22:23;;;;;;;;;9.00;9.00;;;;;;;;5082502;28;45289;-79
2023/07/07 11:24:48;;;;;;;;;10.25;9.75;;;;;;;;5073822;28;46324;-79
2023/07/07 11:27:25;;;;;;;;;10.00;8.67;;;;;;;;5083446;28;45449;-75
2023/07/07 11:30:17;;;;;;;;;9.50;9.50;;;;;;;;5062366;28;45350;-77
2023/07/07 11:32:50;;;;;;;;;9.67;8.00;;;;;;;;5076262;28;45433;-78
2023/07/07 11:35:21;;;;;;;;;11.33;11.33;;;;;;;;5081109;28;45524;-77
2023/07/07 11:37:59;;;;;;;;;9.67;9.67;;;;;;;;5079191;28;45678;-78
2023/07/07 11:40:24;;;;;;;;;10.67;10.67;;;;;;;;5075586;28;45361;-78
2023/07/07 11:43:04;;;;;;;;;10.00;10.00;;;;;;;;5079519;28;45228;-77
2023/07/07 11:45:48;;;;;;;;;10.00;10.00;;;;;;;;5060712;28;47340;-78
2023/07/07 11:48:42;;;;;;;;;7.33;7.33;;;;;;;;5079971;28;45435;-80
2023/07/07 11:51:07;;;;;;;;;13.00;12.00;;;;;;;;5063264;28;45734;-81
2023/07/07 11:53:32;;;;;;;;;10.67;9.67;;;;;;;;5063456;28;47025;-80
2023/07/07 11:56:16;;;;;;;;;11.00;10.00;;;;;;;;5063526;28;46457;-80
2023/07/07 11:58:59;;;;;;;;;9.00;8.00;;;;;;;;5082872;28;45523;-79
2023/07/07 12:01:29;;;;;;;;;11.00;10.67;;;;;;;;5063782;28;45421;-76
2023/07/07 12:03:57;;;;;;;;;11.00;10.00;;;;;;;;5081398;28;45441;-77
2023/07/07 12:06:45;;;;;;;;;11.33;10.67;;;;;;;;5080460;28;46247;-77
2023/07/07 12:09:29;;;;;;;;;10.00;10.00;;;;;;;;5080954;28;45286;-77
2023/07/07 12:11:59;;;;;;;;;11.00;11.00;;;;;;;;5081424;28;45492;-75
2023/07/07 12:14:43;;;;;;;;;11.67;11.33;;;;;;;;5080142;28;45340;-76
2023/07/07 12:17:14;;;;;;;;;10.33;10.33;;;;;;;;5080365;28;45412;-76
2023/07/07 12:19:41;;;;;;;;;9.67;9.67;;;;;;;;5078261;28;45412;-77
2023/07/07 12:22:18;;;;;;;;;10.33;10.33;;;;;;;;5080838;28;45389;-77
2023/07/07 12:24:51;;;;;;;;;10.00;10.00;;;;;;;;5063673;28;46332;-78
2023/07/07 12:27:23;;;;;;;;;11.67;10.67;;;;;;;;5061530;28;48543;-78
2023/07/07 12:29:50;;;;;;;;;10.00;9.25;;;;;;;;5076006;27;45371;-78
2023/07/07 12:32:15;;;;;;;;;10.67;10.00;;;;;;;;5103038;27;45275;-78
2023/07/07 12:34:44;;;;;;;;;11.00;11.00;;;;;;;;5101749;27;45284;-78
2023/07/07 12:37:14;;;;;;;;;8.67;8.67;;;;;;;;5091190;27;45451;-77
2023/07/07 12:40:09;;;;;;;;;12.00;12.00;;;;;;;;5085859;27;45317;-77
2023/07/07 12:42:35;;;;;;;;;10.00;10.00;;;;;;;;5049536;28;45856;-77
2023/07/07 12:45:09;;;;;;;;;10.67;10.67;;;;;;;;5077723;28;45571;-76
2023/07/07 12:47:37;;;;;;;;;10.67;10.67;;;;;;;;5080563;28;45237;-77
2023/07/07 12:50:05;;;;;;;;;9.33;9.33;;;;;;;;5080893;28;45346;-76
2023/07/07 12:52:39;;;;;;;;;12.33;12.00;;;;;;;;5080799;28;45349;-78
2023/07/07 12:55:20;;;;;;;;;9.33;7.33;;;;;;;;5061964;28;47368;-77
2023/07/07 12:58:04;;;;;;;;;8.33;8.33;;;;;;;;5080191;28;46352;-77
2023/07/07 13:00:30;;;;;;;;;8.33;7.00;;;;;;;;5080943;28;45206;-77
2023/07/07 13:03:16;;;;;;;;;8.67;8.67;;;;;;;;5080576;28;45357;-79
2023/07/07 13:05:47;;;;;;;;;6.67;6.67;;;;;;;;5078664;28;45764;-77
2023/07/07 13:08:31;;;;;;;;;8.33;8.33;;;;;;;;5061499;28;48467;-77
2023/07/07 13:11:03;;;;;;;;;9.33;9.00;;;;;;;;5080747;28;45397;-77
2023/07/07 13:13:33;;;;;;;;;7.33;7.00;;;;;;;;5080586;28;45345;-76
2023/07/07 13:15:58;;;;;;;;;10.33;9.00;;;;;;;;5080663;28;45493;-76
2023/07/07 13:18:23;;;;;;;;;10.33;9.33;;;;;;;;5079104;28;45354;-77
2023/07/07 13:20:50;;;;;;;;;8.00;8.00;;;;;;;;5080239;28;45386;-74
2023/07/07 13:23:17;;;;;;;;;6.33;6.33;;;;;;;;5080283;28;45221;-75
2023/07/07 13:25:45;;;;;;;;;8.00;6.00;;;;;;;;5078120;28;45392;-77
2023/07/07 13:28:11;;;;;;;;;6.67;6.67;;;;;;;;5078517;28;46230;-77
2023/07/07 13:30:38;;;;;;;;;6.33;6.33;;;;;;;;5099806;27;45374;-78
2023/07/07 13:33:12;;;;;;;;;5.50;5.50;;;;;;;;5082298;27;45479;-78
2023/07/07 13:35:39;;;;;;;;;6.33;6.33;;;;;;;;5100052;27;45382;-79
2023/07/07 13:38:06;;;;;;;;;6.75;6.75;;;;;;;;5101439;27;45252;-77
2023/07/07 13:40:33;;;;;;;;;4.67;4.67;;;;;;;;5082683;27;46019;-79
2023/07/07 13:42:59;;;;;;;;;5.00;5.00;;;;;;;;5087796;27;45370;-78
2023/07/07 13:45:24;;;;;;;;;5.00;5.00;;;;;;;;5079181;28;45440;-78
2023/07/07 13:47:51;;;;;;;;;4.00;4.00;;;;;;;;5080536;28;46290;-79
2023/07/07 13:50:19;;;;;;;;;5.67;5.00;;;;;;;;5080618;28;45352;-79
2023/07/07 13:52:46;;;;;;;;;6.00;6.00;;;;;;;;5062447;28;45542;-79
2023/07/07 13:55:12;;;;;;;;;5.33;5.00;;;;;;;;5080423;28;46255;-77
2023/07/07 13:57:38;;;;;;;;;5.67;4.33;;;;;;;;5080590;28;45838;-77
2023/07/07 14:00:05;;;;;;;;;5.00;5.00;;;;;;;;5080525;28;45339;-76
2023/07/07 14:02:31;;;;;;;;;5.00;4.00;;;;;;;;5080977;28;45389;-78
2023/07/07 14:04:59;;;;;;;;;4.00;4.00;;;;;;;;5060744;28;46304;-77
2023/07/07 14:07:25;;;;;;;;;4.33;4.00;;;;;;;;5080137;28;45196;-78
2023/07/07 14:09:51;;;;;;;;;3.25;3.00;;;;;;;;5077797;27;45427;-78
2023/07/07 14:12:21;;;;;;;;;5.00;4.00;;;;;;;;5060552;28;45289;-76
2023/07/07 14:14:48;;;;;;;;;4.00;4.00;;;;;;;;5077581;27;45804;-77
2023/07/07 14:17:19;;;;;;;;;3.25;3.25;;;;;;;;5075836;28;46224;-77
2023/07/07 14:19:53;;;;;;;;;3.25;3.25;;;;;;;;5061467;28;45453;-77
2023/07/07 14:22:19;;;;;;;;;3.50;3.50;;;;;;;;5069695;28;46582;-78
2023/07/07 14:24:44;;;;;;;;;3.00;2.00;;;;;;;;5059814;28;47373;-77
2023/07/07 14:27:13;;;;;;;;;4.00;3.50;;;;;;;;5077397;28;45638;-77
2023/07/07 14:29:39;;;;;;;;;4.25;4.25;;;;;;;;5079761;27;45550;-78
2023/07/07 14:32:14;;;;;;;;;3.75;2.75;;;;;;;;5078127;28;45476;-76
2023/07/07 14:34:58;;;;;;;;;4.75;3.50;;;;;;;;5076612;27;45478;-79